createdAt,value
2023-04-26T00:00:33.600Z,10.61
2023-04-26T00:03:08.959Z,10.60
2023-04-26T00:05:40.676Z,10.57
2023-04-26T00:08:20.437Z,10.59
2023-04-26T00:10:49.786Z,10.56
2023-04-26T00:13:18.965Z,10.56
2023-04-26T00:15:48.392Z,10.58
2023-04-26T00:18:17.777Z,10.52
2023-04-26T00:23:29.592Z,10.38
2023-04-26T00:26:04.452Z,10.37
2023-04-26T00:28:34.145Z,10.23
2023-04-26T00:31:03.642Z,10.37
2023-04-26T00:33:33.285Z,10.39
2023-04-26T00:36:23.374Z,10.43
2023-04-26T00:38:54.920Z,10.46
2023-04-26T00:41:29.531Z,10.52
2023-04-26T00:43:58.898Z,10.52
2023-04-26T00:46:29.132Z,10.50
2023-04-26T00:48:59.425Z,10.55
2023-04-26T00:51:45.719Z,10.56
2023-04-26T00:54:15.679Z,10.55
2023-04-26T00:56:45.872Z,10.36
2023-04-26T00:59:21.988Z,10.47
2023-04-26T01:01:51.684Z,10.46
2023-04-26T01:04:42.001Z,10.44
2023-04-26T01:07:14.072Z,10.49
2023-04-26T01:09:43.379Z,10.48
2023-04-26T01:12:13.539Z,10.48
2023-04-26T01:17:25.602Z,10.41
2023-04-26T01:20:05.130Z,10.46
2023-04-26T01:22:38.170Z,10.45
2023-04-26T01:25:29.865Z,10.43
2023-04-26T01:27:59.289Z,10.45
2023-04-26T01:30:28.609Z,10.43
2023-04-26T01:32:57.947Z,10.42
2023-04-26T01:35:28.167Z,10.45
2023-04-26T01:38:09.790Z,10.52
2023-04-26T01:40:39.130Z,10.51
2023-04-26T01:43:08.524Z,10.43
2023-04-26T01:45:37.888Z,10.43
2023-04-26T01:48:25.735Z,10.40
2023-04-26T01:51:00.183Z,10.35
2023-04-26T01:53:31.488Z,10.32
2023-04-26T01:56:03.698Z,10.38
2023-04-26T01:58:33.654Z,10.30
2023-04-26T02:01:08.227Z,10.35
2023-04-26T02:03:56.434Z,10.35
2023-04-26T02:06:26.164Z,10.32
2023-04-26T02:08:57.353Z,10.29
2023-04-26T02:11:48.248Z,10.32
2023-04-26T02:14:17.673Z,10.31
2023-04-26T02:16:46.989Z,10.36
2023-04-26T02:19:16.667Z,10.40
2023-04-26T02:21:57.541Z,10.37
2023-04-26T02:24:41.052Z,10.29
2023-04-26T02:27:10.436Z,10.23
2023-04-26T02:29:43.881Z,10.13
2023-04-26T02:32:34.783Z,10.16
2023-04-26T02:35:04.897Z,10.15
2023-04-26T02:37:35.590Z,10.16
2023-04-26T02:40:10.599Z,10.13
2023-04-26T02:42:45.032Z,10.21
2023-04-26T02:45:14.816Z,10.13
2023-04-26T02:47:44.522Z,10.23
2023-04-26T02:50:14.108Z,10.05
2023-04-26T02:52:50.222Z,10.25
2023-04-26T02:55:21.935Z,10.21
2023-04-26T02:57:51.481Z,10.15
2023-04-26T03:00:20.826Z,10.14
2023-04-26T03:02:50.367Z,10.16
2023-04-26T03:05:20.607Z,10.23
2023-04-26T03:07:49.885Z,10.26
2023-04-26T03:10:21.213Z,10.28
2023-04-26T03:12:50.718Z,10.32
2023-04-26T03:15:20.211Z,10.33
2023-04-26T03:17:49.566Z,10.27
2023-04-26T03:20:19.143Z,10.28
2023-04-26T03:22:53.614Z,10.36
2023-04-26T03:25:24.869Z,10.41
2023-04-26T03:27:55.110Z,10.40
2023-04-26T03:30:24.552Z,10.38
2023-04-26T03:35:30.599Z,10.43
2023-04-26T03:38:01.020Z,10.44
2023-04-26T03:40:37.283Z,10.43
2023-04-26T03:43:06.639Z,10.43
2023-04-26T03:45:36.367Z,10.45
2023-04-26T03:48:15.887Z,10.45
2023-04-26T03:50:46.691Z,10.53
2023-04-26T03:53:16.373Z,10.56
2023-04-26T03:55:48.934Z,10.59
2023-04-26T04:00:59.066Z,10.70
2023-04-26T04:03:30.008Z,10.73
2023-04-26T04:06:04.500Z,10.84
2023-04-26T04:08:33.855Z,10.98
2023-04-26T04:11:11.821Z,11.05
2023-04-26T04:13:42.053Z,11.06
2023-04-26T04:16:16.361Z,11.04
2023-04-26T04:18:46.179Z,11.12
2023-04-26T04:21:16.116Z,11.12
2023-04-26T04:23:51.825Z,11.29
2023-04-26T04:26:23.216Z,11.30
2023-04-26T04:31:29.757Z,11.16
2023-04-26T04:34:05.579Z,11.15
2023-04-26T04:36:38.462Z,11.29
2023-04-26T04:39:13.305Z,11.46
2023-04-26T04:41:47.989Z,11.37
2023-04-26T04:44:19.682Z,11.39
2023-04-26T04:46:54.664Z,11.53
2023-04-26T04:49:24.643Z,11.60
2023-04-26T04:51:54.067Z,11.48
2023-04-26T04:54:24.521Z,11.51
2023-04-26T04:56:57.172Z,11.58
2023-04-26T04:59:27.957Z,11.64
2023-04-26T05:02:03.058Z,11.70
2023-04-26T05:04:34.768Z,11.84
2023-04-26T05:07:17.980Z,12.07
2023-04-26T05:09:47.598Z,12.18
2023-04-26T05:12:24.024Z,12.21
2023-04-26T05:14:53.942Z,12.01
2023-04-26T05:17:23.490Z,11.84
2023-04-26T05:19:54.110Z,12.04
2023-04-26T05:22:24.163Z,12.03
2023-04-26T05:24:59.348Z,11.99
2023-04-26T05:27:32.636Z,11.97
2023-04-26T05:30:18.537Z,11.97
2023-04-26T05:33:10.691Z,12.11
2023-04-26T05:35:49.273Z,12.21
2023-04-26T05:38:30.439Z,12.18
2023-04-26T05:41:05.213Z,12.14
2023-04-26T05:43:36.561Z,12.22
2023-04-26T05:46:06.625Z,12.29
2023-04-26T05:48:35.948Z,12.23
2023-04-26T05:51:05.218Z,12.11
2023-04-26T05:53:39.652Z,12.07
2023-04-26T05:56:30.428Z,12.10
2023-04-26T05:59:02.130Z,12.14
2023-04-26T06:01:31.457Z,12.16
2023-04-26T06:04:01.961Z,12.12
2023-04-26T06:06:43.847Z,12.12
2023-04-26T06:09:13.565Z,12.21
2023-04-26T06:11:43.598Z,12.14
2023-04-26T06:14:29.384Z,12.18
2023-04-26T06:17:11.442Z,12.12
2023-04-26T06:19:40.829Z,12.16
2023-04-26T06:22:10.068Z,11.96
2023-04-26T06:24:39.602Z,12.22
2023-04-26T06:27:09.367Z,12.21
2023-04-26T06:29:43.385Z,12.15
2023-04-26T06:32:12.986Z,12.34
2023-04-26T06:34:43.665Z,12.45
2023-04-26T06:37:13.352Z,12.40
2023-04-26T06:39:45.318Z,12.51
2023-04-26T06:42:15.444Z,12.51
2023-04-26T06:45:13.989Z,12.78
2023-04-26T06:47:43.704Z,12.84
2023-04-26T06:50:13.795Z,12.56
2023-04-26T06:52:43.510Z,12.72
2023-04-26T06:55:12.977Z,12.72
2023-04-26T06:57:43.217Z,12.64
2023-04-26T07:00:15.915Z,12.69
2023-04-26T07:02:50.560Z,12.77
2023-04-26T07:05:20.128Z,12.73
2023-04-26T07:07:49.692Z,12.89
2023-04-26T07:10:25.702Z,13.02
2023-04-26T07:12:59.996Z,13.16
2023-04-26T07:15:32.992Z,13.10
2023-04-26T07:18:02.491Z,12.90
2023-04-26T07:20:31.958Z,12.97
2023-04-26T07:23:11.394Z,12.94
2023-04-26T07:25:46.654Z,12.95
2023-04-26T07:28:15.982Z,12.87
2023-04-26T07:30:47.320Z,12.89
2023-04-26T07:33:16.701Z,12.81
2023-04-26T07:35:57.590Z,12.70
2023-04-26T07:38:27.455Z,12.71
2023-04-26T07:40:58.036Z,12.70
2023-04-26T07:43:34.398Z,12.63
2023-04-26T07:46:05.774Z,12.77
2023-04-26T07:48:35.339Z,12.96
2023-04-26T07:51:10.196Z,12.86
2023-04-26T07:53:44.704Z,12.98
2023-04-26T07:56:14.930Z,13.02
2023-04-26T07:58:44.567Z,13.00
2023-04-26T08:01:16.812Z,13.14
2023-04-26T08:03:47.273Z,13.15
2023-04-26T08:06:16.964Z,13.38
2023-04-26T08:08:53.401Z,13.50
2023-04-26T08:11:22.887Z,13.49
2023-04-26T08:13:52.461Z,13.67
2023-04-26T08:16:23.899Z,13.53
2023-04-26T08:19:02.361Z,13.51
2023-04-26T08:21:32.344Z,13.48
2023-04-26T08:24:01.545Z,13.54
2023-04-26T08:26:37.566Z,13.41
2023-04-26T08:29:11.861Z,13.36
2023-04-26T08:34:18.261Z,12.92
2023-04-26T08:36:47.653Z,13.02
2023-04-26T08:39:17.474Z,13.16
2023-04-26T08:41:51.889Z,13.06
2023-04-26T08:44:25.305Z,12.93
2023-04-26T08:47:05.017Z,13.14
2023-04-26T08:49:43.193Z,13.23
2023-04-26T08:52:14.413Z,13.16
2023-04-26T08:54:44.162Z,13.06
2023-04-26T08:57:14.319Z,13.01
2023-04-26T08:59:48.977Z,12.99
2023-04-26T09:02:22.765Z,12.97
2023-04-26T09:04:53.311Z,12.94
2023-04-26T09:07:24.379Z,12.93
2023-04-26T09:09:56.553Z,12.91
2023-04-26T09:12:26.394Z,12.98
2023-04-26T09:14:56.138Z,13.01
2023-04-26T09:17:32.693Z,13.31
2023-04-26T09:20:07.746Z,13.89
2023-04-26T09:22:39.383Z,14.39
2023-04-26T09:25:10.236Z,14.30
2023-04-26T09:27:41.634Z,14.14
2023-04-26T09:30:15.363Z,14.31
2023-04-26T09:32:58.547Z,14.31
2023-04-26T09:35:30.695Z,14.03
2023-04-26T09:38:13.835Z,13.89
2023-04-26T09:40:59.156Z,14.06
2023-04-26T09:43:28.758Z,13.79
2023-04-26T09:46:00.518Z,14.03
2023-04-26T09:48:34.200Z,14.20
2023-04-26T09:51:22.231Z,14.39
2023-04-26T09:53:52.027Z,14.24
2023-04-26T09:56:22.329Z,14.03
2023-04-26T09:59:00.860Z,13.89
2023-04-26T10:01:36.311Z,13.88
2023-04-26T10:04:13.197Z,13.90
2023-04-26T10:06:42.639Z,13.89
2023-04-26T10:09:12.175Z,13.94
2023-04-26T10:11:41.933Z,14.22
2023-04-26T10:14:17.217Z,14.32
2023-04-26T10:16:52.621Z,14.40
2023-04-26T10:19:25.329Z,14.49
2023-04-26T10:21:59.394Z,14.75
2023-04-26T10:24:30.434Z,15.05
2023-04-26T10:30:10.430Z,15.09
2023-04-26T10:33:18.843Z,14.77
2023-04-26T10:36:06.556Z,14.51
2023-04-26T10:38:36.902Z,14.26
2023-04-26T10:41:31.259Z,14.14
2023-04-26T10:44:02.575Z,13.68
2023-04-26T10:46:45.884Z,13.66
2023-04-26T10:49:17.272Z,13.51
2023-04-26T10:54:57.130Z,13.84
2023-04-26T10:57:42.129Z,14.05
2023-04-26T11:00:38.656Z,14.13
2023-04-26T11:03:09.226Z,14.04
2023-04-26T11:05:56.319Z,14.03
2023-04-26T11:08:32.775Z,14.12
2023-04-26T11:11:10.745Z,14.18
2023-04-26T11:13:46.459Z,14.27
2023-04-26T11:16:17.132Z,14.08
2023-04-26T11:18:56.674Z,13.90
2023-04-26T11:21:28.364Z,14.14
2023-04-26T11:26:36.350Z,14.76
2023-04-26T11:29:05.672Z,15.09
2023-04-26T11:31:39.966Z,15.11
2023-04-26T11:34:09.629Z,15.14
2023-04-26T11:36:45.598Z,15.10
2023-04-26T11:39:17.419Z,15.19
2023-04-26T11:41:46.375Z,15.44
2023-04-26T11:44:19.757Z,15.73
2023-04-26T11:46:50.674Z,16.16
2023-04-26T11:49:20.388Z,16.46
2023-04-26T11:51:53.000Z,16.49
2023-04-26T11:54:35.412Z,15.99
2023-04-26T11:57:17.343Z,15.71
2023-04-26T11:59:47.757Z,15.33
2023-04-26T12:02:17.109Z,14.96
2023-04-26T12:04:46.920Z,14.82
2023-04-26T12:07:21.272Z,14.71
2023-04-26T12:09:52.661Z,14.57
2023-04-26T12:12:25.355Z,14.37
2023-04-26T12:14:54.750Z,14.18
2023-04-26T12:17:24.072Z,14.09
2023-04-26T12:19:53.938Z,14.05
2023-04-26T12:22:23.708Z,14.11
2023-04-26T12:25:07.035Z,14.21
2023-04-26T12:27:36.520Z,14.12
2023-04-26T12:30:06.880Z,14.08
2023-04-26T12:35:11.723Z,14.07
2023-04-26T12:37:40.988Z,14.05
2023-04-26T12:40:14.351Z,14.18
2023-04-26T12:42:43.717Z,14.37
2023-04-26T12:51:56.412Z,14.62
2023-04-26T12:54:27.065Z,14.76
2023-04-26T12:56:56.609Z,14.58
2023-04-26T12:59:25.960Z,14.38
2023-04-26T13:02:01.298Z,14.33
2023-04-26T13:04:30.749Z,14.46
2023-04-26T13:09:42.657Z,15.08
2023-04-26T13:12:11.966Z,15.49
2023-04-26T13:14:48.380Z,15.77
2023-04-26T13:17:17.875Z,15.98
2023-04-26T13:19:47.484Z,16.19
2023-04-26T13:22:19.256Z,16.04
2023-04-26T13:24:49.230Z,16.16
2023-04-26T13:27:18.871Z,16.16
2023-04-26T13:29:48.206Z,16.23
2023-04-26T13:32:17.377Z,16.21
2023-04-26T13:34:47.212Z,16.33
2023-04-26T13:37:20.869Z,16.55
2023-04-26T13:39:50.641Z,16.50
2023-04-26T13:42:20.269Z,16.51
2023-04-26T13:44:49.651Z,16.45
2023-04-26T13:47:19.060Z,16.43
2023-04-26T13:49:54.291Z,16.60
2023-04-26T13:52:26.193Z,16.44
2023-04-26T13:55:02.844Z,16.60
2023-04-26T13:57:33.542Z,16.61
2023-04-26T14:00:14.525Z,16.47
2023-04-26T14:02:43.875Z,16.49
2023-04-26T14:05:15.256Z,16.42
2023-04-26T14:07:46.837Z,16.30
2023-04-26T14:10:21.290Z,16.22
2023-04-26T14:12:50.820Z,16.11
2023-04-26T14:15:20.056Z,16.07
2023-04-26T14:17:49.753Z,16.06
2023-04-26T14:20:19.270Z,16.07
2023-04-26T14:22:50.830Z,16.16
2023-04-26T14:25:20.383Z,16.17
2023-04-26T14:27:51.814Z,16.05
2023-04-26T14:30:24.166Z,16.02
2023-04-26T14:32:53.573Z,16.08
2023-04-26T14:35:22.938Z,16.08
2023-04-26T14:37:54.381Z,15.93
2023-04-26T14:40:26.361Z,15.86
2023-04-26T14:45:43.546Z,15.79
2023-04-26T14:48:13.970Z,15.77
2023-04-26T14:50:43.483Z,15.76
2023-04-26T14:53:14.874Z,15.72
2023-04-26T14:55:44.418Z,15.76
2023-04-26T14:58:22.031Z,15.74
2023-04-26T15:00:52.389Z,15.64
2023-04-26T15:03:22.736Z,15.73
2023-04-26T15:05:57.670Z,15.57
2023-04-26T15:08:29.776Z,15.62
2023-04-26T15:10:59.199Z,15.62
2023-04-26T15:13:28.365Z,15.55
2023-04-26T15:16:09.257Z,15.46
2023-04-26T15:18:38.486Z,15.42
2023-04-26T15:21:08.243Z,15.34
2023-04-26T15:23:40.055Z,15.34
2023-04-26T15:26:09.331Z,15.27
2023-04-26T15:28:43.680Z,15.25
2023-04-26T15:31:13.159Z,15.24
2023-04-26T15:33:42.787Z,15.19
2023-04-26T15:36:12.351Z,15.21
2023-04-26T15:38:45.003Z,15.17
2023-04-26T15:41:14.272Z,15.10
2023-04-26T15:43:44.142Z,15.09
2023-04-26T15:46:16.556Z,14.97
2023-04-26T15:48:46.336Z,14.80
2023-04-26T15:51:15.974Z,14.75
2023-04-26T15:53:47.265Z,14.59
2023-04-26T15:56:17.462Z,14.52
2023-04-26T15:58:47.042Z,14.46
2023-04-26T16:01:16.991Z,14.44
2023-04-26T16:03:47.888Z,14.42
2023-04-26T16:06:17.607Z,14.40
2023-04-26T16:08:48.946Z,14.41
2023-04-26T16:11:18.434Z,14.40
2023-04-26T16:13:51.404Z,14.43
2023-04-26T16:16:22.401Z,14.21
2023-04-26T16:18:52.060Z,14.20
2023-04-26T16:21:21.399Z,14.14
2023-04-26T16:23:58.506Z,14.09
2023-04-26T16:26:28.487Z,14.01
2023-04-26T16:28:57.620Z,13.95
2023-04-26T16:31:27.228Z,13.92
2023-04-26T16:33:56.469Z,13.83
2023-04-26T16:36:32.701Z,13.84
2023-04-26T16:39:03.870Z,13.95
2023-04-26T16:41:33.182Z,13.99
2023-04-26T16:44:07.406Z,14.05
2023-04-26T16:46:36.932Z,13.94
2023-04-26T16:49:09.215Z,13.76
2023-04-26T16:51:38.963Z,13.44
2023-04-26T16:54:10.257Z,13.44
2023-04-26T16:56:49.905Z,13.37
2023-04-26T16:59:20.393Z,13.26
2023-04-26T17:01:50.233Z,13.17
2023-04-26T17:04:19.814Z,13.20
2023-04-26T17:06:54.256Z,13.25
2023-04-26T17:09:30.821Z,13.39
2023-04-26T17:12:05.229Z,13.40
2023-04-26T17:14:34.531Z,13.41
2023-04-26T17:17:03.840Z,13.37
2023-04-26T17:19:33.225Z,13.29
2023-04-26T17:22:02.689Z,13.40
2023-04-26T17:24:33.849Z,13.15
2023-04-26T17:27:04.133Z,13.23
2023-04-26T17:29:33.336Z,13.22
2023-04-26T17:32:04.117Z,13.15
2023-04-26T17:34:33.752Z,13.16
2023-04-26T17:37:03.057Z,13.14
2023-04-26T17:39:34.420Z,13.17
2023-04-26T17:42:04.623Z,13.04
2023-04-26T17:44:34.010Z,13.01
2023-04-26T17:47:03.462Z,12.92
2023-04-26T17:49:32.740Z,12.82
2023-04-26T17:52:02.067Z,12.67
2023-04-26T17:54:33.942Z,12.61
2023-04-26T17:57:03.992Z,12.55
2023-04-26T17:59:33.189Z,12.57
2023-04-26T18:02:07.860Z,12.57
2023-04-26T18:04:37.526Z,12.69
2023-04-26T18:07:07.359Z,12.74
2023-04-26T18:09:38.410Z,12.76
2023-04-26T18:12:07.994Z,12.75
2023-04-26T18:14:43.976Z,12.75
2023-04-26T18:17:14.857Z,12.70
2023-04-26T18:19:50.655Z,12.77
2023-04-26T18:22:20.074Z,12.79
2023-04-26T18:24:51.477Z,12.76
2023-04-26T18:27:21.069Z,12.73
2023-04-26T18:29:50.838Z,12.73
2023-04-26T18:32:20.156Z,12.66
2023-04-26T18:34:49.508Z,12.59
2023-04-26T18:37:19.796Z,12.49
2023-04-26T18:39:51.044Z,12.54
2023-04-26T18:42:20.971Z,12.33
2023-04-26T18:44:50.282Z,12.40
2023-04-26T18:47:28.879Z,12.25
2023-04-26T18:50:04.101Z,12.15
2023-04-26T18:52:38.795Z,12.10
2023-04-26T18:55:11.350Z,12.10
2023-04-26T18:57:40.946Z,12.07
2023-04-26T19:00:11.575Z,12.05
2023-04-26T19:02:41.849Z,12.05
2023-04-26T19:07:53.919Z,11.83
2023-04-26T19:10:31.165Z,11.73
2023-04-26T19:13:00.432Z,11.72
2023-04-26T19:15:29.825Z,11.72
2023-04-26T19:17:59.329Z,11.69
2023-04-26T19:20:29.260Z,11.52
2023-04-26T19:22:58.622Z,11.29
2023-04-26T19:25:30.115Z,11.35
2023-04-26T19:28:02.555Z,11.27
2023-04-26T19:30:32.079Z,11.25
2023-04-26T19:33:01.427Z,11.18
2023-04-26T19:35:30.819Z,11.35
2023-04-26T19:38:00.193Z,11.34
2023-04-26T19:40:30.007Z,11.32
2023-04-26T19:43:01.271Z,11.28
2023-04-26T19:45:37.619Z,11.22
2023-04-26T19:48:10.438Z,11.13
2023-04-26T19:50:43.777Z,10.91
2023-04-26T19:53:18.279Z,11.05
2023-04-26T19:55:48.433Z,11.22
2023-04-26T19:58:24.839Z,11.23
2023-04-26T20:00:54.255Z,11.22
2023-04-26T20:03:23.925Z,11.17
2023-04-26T20:05:53.555Z,11.11
2023-04-26T20:08:22.737Z,11.27
2023-04-26T20:10:57.854Z,11.27
2023-04-26T20:13:41.113Z,11.21
2023-04-26T20:16:10.622Z,11.02
2023-04-26T20:18:40.323Z,11.08
2023-04-26T20:21:09.881Z,11.05
2023-04-26T20:23:39.462Z,11.08
2023-04-26T20:26:08.910Z,11.06
2023-04-26T20:28:45.635Z,10.99
2023-04-26T20:31:14.763Z,10.95
2023-04-26T20:33:46.901Z,10.87
2023-04-26T20:36:17.291Z,10.93
2023-04-26T20:38:46.705Z,10.95
2023-04-26T20:41:16.135Z,10.96
2023-04-26T20:43:47.631Z,10.98
2023-04-26T20:46:22.574Z,11.04
2023-04-26T20:48:52.148Z,11.05
2023-04-26T20:51:21.353Z,11.04
2023-04-26T20:54:00.748Z,10.97
2023-04-26T20:56:30.207Z,10.87
2023-04-26T20:59:08.457Z,10.84
2023-04-26T21:01:38.083Z,10.78
2023-04-26T21:04:12.521Z,10.81
2023-04-26T21:06:42.001Z,10.89
2023-04-26T21:09:11.488Z,10.86
2023-04-26T21:11:50.906Z,10.89
2023-04-26T21:14:22.339Z,10.77
2023-04-26T21:16:51.647Z,10.78
2023-04-26T21:19:25.987Z,10.74
2023-04-26T21:21:55.533Z,10.40
2023-04-26T21:24:24.892Z,10.60
2023-04-26T21:26:54.238Z,10.37
2023-04-26T21:29:25.531Z,10.36
2023-04-26T21:31:55.131Z,10.27
2023-04-26T21:34:31.093Z,10.28
2023-04-26T21:37:00.474Z,10.27
2023-04-26T21:39:37.090Z,10.23
2023-04-26T21:42:06.671Z,10.13
2023-04-26T21:44:44.599Z,10.31
2023-04-26T21:47:13.978Z,10.18
2023-04-26T21:49:43.069Z,10.32
2023-04-26T21:52:12.360Z,10.27
2023-04-26T21:54:41.846Z,10.21
2023-04-26T21:57:11.262Z,10.17
2023-04-26T21:59:41.944Z,10.25
2023-04-26T22:02:13.306Z,10.24
2023-04-26T22:04:47.570Z,10.18
2023-04-26T22:07:17.048Z,10.04
2023-04-26T22:09:46.371Z,10.04
2023-04-26T22:12:20.715Z,9.99
2023-04-26T22:14:50.060Z,9.98
2023-04-26T22:17:21.276Z,10.04
2023-04-26T22:19:50.623Z,10.02
2023-04-26T22:22:20.197Z,10.05
2023-04-26T22:24:54.524Z,10.10
2023-04-26T22:27:23.924Z,10.10
2023-04-26T22:29:53.051Z,10.07
2023-04-26T22:32:30.431Z,10.09
2023-04-26T22:34:59.740Z,10.00
2023-04-26T22:37:28.893Z,9.79
2023-04-26T22:40:04.075Z,9.40
2023-04-26T22:42:33.378Z,9.41
2023-04-26T22:45:02.531Z,9.28
2023-04-26T22:47:35.690Z,9.24
2023-04-26T22:50:05.216Z,9.32
2023-04-26T22:52:37.500Z,9.45
2023-04-26T22:55:07.742Z,9.44
2023-04-26T22:57:37.189Z,9.47
2023-04-26T23:00:09.214Z,9.36
2023-04-26T23:02:45.831Z,9.44
2023-04-26T23:05:15.269Z,9.42
2023-04-26T23:07:44.782Z,9.42
2023-04-26T23:10:14.472Z,9.38
2023-04-26T23:12:44.560Z,9.30
2023-04-26T23:15:14.081Z,8.96
2023-04-26T23:17:53.471Z,9.19
2023-04-26T23:20:22.776Z,9.17
2023-04-26T23:22:52.124Z,9.15
2023-04-26T23:25:22.437Z,9.13
2023-04-26T23:27:51.727Z,9.06
2023-04-26T23:30:26.539Z,9.02
2023-04-26T23:32:57.806Z,8.97
2023-04-26T23:35:27.170Z,8.93
2023-04-26T23:37:56.268Z,8.83
2023-04-26T23:40:25.383Z,8.85
2023-04-26T23:42:59.937Z,8.84
2023-04-26T23:45:29.227Z,8.82
2023-04-26T23:48:00.483Z,8.90
2023-04-26T23:50:29.822Z,9.01
2023-04-26T23:52:59.169Z,9.09
2023-04-26T23:55:33.521Z,9.16
2023-04-26T23:58:02.658Z,9.07
